Time;durP1;ratioP1;P1;durP2;ratioP2;P2;SDS_P1;SDS_P2;PMS_P1;PMS_P2;Temp;Humidity;BMP_temperature;BMP_pressure;BME280_temperature;BME280_humidity;BME280_pressure;Samples;Min_cycle;Max_cycle;Signal;HPM_P1;HPM_P2
2021/11/09 00:00:32;;;;;;;36.38;9.82;;;7.60;88.40;;;;;;5072646;28;20055;-37
2021/11/09 00:02:58;;;;;;;25.77;10.07;;;7.60;88.50;;;;;;5071335;28;20021;-37
2021/11/09 00:05:26;;;;;;;37.35;12.30;;;7.50;88.70;;;;;;5072612;28;20059;-37
2021/11/09 00:10:20;;;;;;;32.92;10.25;;;7.40;89.10;;;;;;5072828;28;20020;-38
2021/11/09 00:12:49;;;;;;;42.35;11.15;;;7.40;89.30;;;;;;5072457;28;20089;-37
2021/11/09 00:15:16;;;;;;;24.23;9.02;;;7.30;89.50;;;;;;5072363;28;20054;-37
2021/11/09 00:17:43;;;;;;;23.00;9.35;;;7.30;89.80;;;;;;5072865;28;20024;-37
2021/11/09 00:20:12;;;;;;;24.52;9.40;;;7.30;89.80;;;;;;5072629;28;20070;-37
2021/11/09 00:22:39;;;;;;;34.72;10.52;;;7.20;90.00;;;;;;5077105;28;20468;-37
2021/11/09 00:25:06;;;;;;;36.72;9.90;;;7.20;90.10;;;;;;5076458;28;20028;-37
2021/11/09 00:27:32;;;;;;;31.02;10.02;;;7.20;90.20;;;;;;5076695;28;20039;-37
2021/11/09 00:29:57;;;;;;;30.50;9.27;;;7.10;90.30;;;;;;5076327;28;20108;-37
2021/11/09 00:32:23;;;;;;;33.55;11.23;;;7.10;90.40;;;;;;5075847;28;20075;-37
2021/11/09 00:34:49;;;;;;;25.10;9.82;;;7.10;90.50;;;;;;5076253;28;20032;-37
2021/11/09 00:37:15;;;;;;;28.83;9.93;;;7.00;90.60;;;;;;5076339;28;20100;-37
2021/11/09 00:39:42;;;;;;;28.92;10.00;;;6.90;90.60;;;;;;5074849;28;20116;-37
2021/11/09 00:42:09;;;;;;;39.20;13.07;;;6.90;90.70;;;;;;5076208;28;20036;-38
2021/11/09 00:44:35;;;;;;;31.75;9.43;;;6.90;90.70;;;;;;5075931;28;20017;-37
2021/11/09 00:47:00;;;;;;;26.95;8.80;;;6.90;90.80;;;;;;5075866;28;20039;-38
2021/11/09 00:49:26;;;;;;;27.77;11.40;;;6.80;90.80;;;;;;5076108;28;20349;-37
2021/11/09 00:51:52;;;;;;;32.60;10.07;;;6.80;90.80;;;;;;5075791;28;20410;-37
2021/11/09 00:54:19;;;;;;;33.83;9.70;;;6.80;90.80;;;;;;5075717;28;20494;-37
2021/11/09 00:56:45;;;;;;;29.88;10.43;;;6.80;90.80;;;;;;5075889;28;20044;-37
2021/11/09 00:59:11;;;;;;;28.83;9.95;;;6.70;90.80;;;;;;5075898;28;20029;-37
2021/11/09 01:01:37;;;;;;;29.95;11.18;;;6.70;90.90;;;;;;5075856;28;20442;-38
2021/11/09 01:04:04;;;;;;;29.95;9.98;;;6.70;91.00;;;;;;5075763;28;20024;-37
2021/11/09 01:06:30;;;;;;;30.77;10.25;;;6.60;91.00;;;;;;5075274;28;20524;-37
2021/11/09 01:08:56;;;;;;;29.35;8.88;;;6.50;91.00;;;;;;5075692;28;20028;-37
2021/11/09 01:11:21;;;;;;;34.42;10.73;;;6.50;91.10;;;;;;5075493;28;20074;-37
2021/11/09 01:13:49;;;;;;;29.35;10.60;;;6.50;91.30;;;;;;5075533;28;20028;-37
2021/11/09 01:16:17;;;;;;;25.50;10.50;;;6.50;91.30;;;;;;5074013;28;20021;-38
2021/11/09 01:18:52;;;;;;;30.45;9.25;;;6.50;91.30;;;;;;5075552;28;20036;-37
2021/11/09 01:21:19;;;;;;;25.25;10.02;;;6.50;91.30;;;;;;5075482;28;20057;-38
2021/11/09 01:23:47;;;;;;;41.45;9.63;;;6.50;91.20;;;;;;5075124;28;20064;-38
2021/11/09 01:26:14;;;;;;;44.55;13.55;;;6.50;91.30;;;;;;5075329;28;20318;-38
2021/11/09 01:28:40;;;;;;;31.20;13.40;;;6.50;91.30;;;;;;5075017;28;20149;-38
2021/11/09 01:31:08;;;;;;;26.88;10.75;;;6.70;91.10;;;;;;5075087;28;20029;-38
2021/11/09 01:33:35;;;;;;;35.10;12.15;;;6.60;90.80;;;;;;5073659;28;20195;-38
2021/11/09 01:36:01;;;;;;;31.98;12.20;;;6.60;90.70;;;;;;5075037;28;20043;-38
2021/11/09 01:38:27;;;;;;;30.30;10.32;;;6.50;90.80;;;;;;5075311;28;20112;-37
2021/11/09 01:40:54;;;;;;;30.70;8.88;;;6.40;90.80;;;;;;5073577;28;20150;-38
2021/11/09 01:43:22;;;;;;;26.35;8.45;;;6.30;91.00;;;;;;5075081;28;20021;-37
2021/11/09 01:45:48;;;;;;;39.42;11.90;;;6.30;91.20;;;;;;5073489;28;20024;-36
2021/11/09 01:48:14;;;;;;;34.20;10.07;;;6.30;91.40;;;;;;5075046;28;20066;-38
2021/11/09 01:50:45;;;;;;;27.80;8.88;;;6.30;91.60;;;;;;5074684;28;20032;-36
2021/11/09 01:53:11;;;;;;;33.03;10.07;;;6.30;91.60;;;;;;5074958;28;20036;-36
2021/11/09 01:55:37;;;;;;;34.83;10.80;;;6.30;91.70;;;;;;5074785;28;20068;-36
2021/11/09 01:58:05;;;;;;;45.70;13.25;;;6.30;91.70;;;;;;5074870;28;20050;-36
2021/11/09 02:00:49;;;;;;;26.55;9.07;;;6.50;91.80;;;;;;5074524;28;20027;-36
2021/11/09 02:03:17;;;;;;;41.15;12.52;;;6.50;91.30;;;;;;5074524;28;20024;-36
2021/11/09 02:05:43;;;;;;;33.58;9.98;;;6.50;91.10;;;;;;5074006;28;20052;-36
2021/11/09 02:08:09;;;;;;;32.20;9.32;;;6.40;91.10;;;;;;5072849;28;20112;-41
2021/11/09 02:10:38;;;;;;;27.90;10.48;;;6.30;91.30;;;;;;5074113;28;20449;-36
2021/11/09 02:13:04;;;;;;;41.55;11.52;;;6.30;91.40;;;;;;5073962;28;20060;-36
2021/11/09 02:15:31;;;;;;;30.58;10.10;;;6.30;91.50;;;;;;5074112;28;20071;-36
2021/11/09 02:17:57;;;;;;;29.80;9.88;;;6.20;91.50;;;;;;5074618;28;20035;-36
2021/11/09 02:20:26;;;;;;;33.92;11.23;;;6.20;91.60;;;;;;5074287;28;20506;-36
2021/11/09 02:22:52;;;;;;;23.35;9.25;;;6.10;91.70;;;;;;5073791;28;20028;-40
2021/11/09 02:25:20;;;;;;;24.25;9.60;;;6.00;91.60;;;;;;5073847;28;20457;-36
2021/11/09 02:27:47;;;;;;;28.30;9.10;;;6.00;91.70;;;;;;5073735;28;20024;-37
2021/11/09 02:30:17;;;;;;;26.55;9.07;;;6.00;91.90;;;;;;5073651;28;20074;-36
2021/11/09 02:32:43;;;;;;;36.72;11.57;;;5.90;92.00;;;;;;5074114;28;20078;-36
2021/11/09 02:35:11;;;;;;;26.65;9.98;;;5.90;92.00;;;;;;5073804;28;20111;-37
2021/11/09 02:37:36;;;;;;;27.10;9.25;;;5.90;92.00;;;;;;5074067;28;20028;-36
2021/11/09 02:40:06;;;;;;;26.58;9.40;;;5.80;92.10;;;;;;5074643;28;20077;-36
2021/11/09 02:42:35;;;;;;;28.80;10.27;;;5.80;92.10;;;;;;5073957;28;20530;-36
2021/11/09 02:45:25;;;;;;;24.23;8.20;;;5.80;92.10;;;;;;5073174;28;20170;-36
2021/11/09 02:48:16;;;;;;;32.05;11.43;;;5.80;92.20;;;;;;5073887;28;20058;-37
2021/11/09 02:50:58;;;;;;;37.88;10.77;;;5.80;92.20;;;;;;5074055;28;20376;-37
2021/11/09 02:53:35;;;;;;;26.52;9.13;;;5.80;92.20;;;;;;5073714;28;20131;-36
2021/11/09 02:56:15;;;;;;;30.08;9.93;;;5.80;92.30;;;;;;5072134;28;20031;-36
2021/11/09 03:01:36;;;;;;;36.60;10.52;;;5.80;92.30;;;;;;5073371;28;20031;-36
2021/11/09 03:04:11;;;;;;;27.67;9.90;;;5.80;92.30;;;;;;5073229;28;20101;-36
2021/11/09 03:06:47;;;;;;;37.85;11.45;;;5.80;92.40;;;;;;5072028;28;20397;-45
2021/11/09 03:09:38;;;;;;;38.58;10.23;;;5.80;92.60;;;;;;5073528;28;20107;-37
2021/11/09 03:12:05;;;;;;;32.50;10.23;;;5.90;92.60;;;;;;5073791;28;20040;-37
2021/11/09 03:14:32;;;;;;;34.28;9.25;;;5.90;92.70;;;;;;5073374;28;20098;-36
2021/11/09 03:17:02;;;;;;;31.17;9.32;;;5.80;92.50;;;;;;5073129;28;20021;-39
2021/11/09 03:19:40;;;;;;;31.20;10.07;;;5.90;92.50;;;;;;5073299;28;20021;-37
2021/11/09 03:46:46;;;;;;;25.98;8.70;;;5.50;92.30;;;;;;5073083;28;20035;-37
2021/11/09 03:49:13;;;;;;;23.00;8.57;;;5.40;92.30;;;;;;5073010;28;20565;-37
2021/11/09 03:51:39;;;;;;;35.88;10.50;;;5.40;92.30;;;;;;5072917;28;20036;-38
2021/11/09 03:54:11;;;;;;;26.38;10.07;;;5.40;92.40;;;;;;5071347;28;20028;-37
2021/11/09 03:59:06;;;;;;;26.63;10.60;;;5.30;92.40;;;;;;5077067;28;20025;-37
2021/11/09 04:01:43;;;;;;;26.10;10.32;;;5.30;92.40;;;;;;5076722;28;20046;-36
2021/11/09 04:04:36;;;;;;;24.40;8.50;;;5.30;92.50;;;;;;5077055;28;20033;-36
2021/11/09 04:07:10;;;;;;;24.23;9.02;;;5.30;92.50;;;;;;5076499;28;20128;-39
2021/11/09 04:09:46;;;;;;;36.95;10.35;;;5.30;92.50;;;;;;5076554;28;20028;-37
2021/11/09 04:15:47;;;;;;;30.33;9.82;;;5.40;92.70;;;;;;5075576;28;20504;-36
2021/11/09 04:18:19;;;;;;;26.70;9.35;;;5.30;92.60;;;;;;5076059;28;20072;-36
2021/11/09 04:20:56;;;;;;;28.65;8.90;;;5.40;92.70;;;;;;5075085;28;20545;-36
2021/11/09 04:24:19;;;;;;;31.40;9.80;;;5.30;92.70;;;;;;5076205;28;20138;-37
2021/11/09 04:26:28;;;;;;;21.25;8.60;;;5.40;92.70;;;;;;5075580;28;20029;-37
2021/11/09 04:32:00;;;;;;;25.95;9.25;;;5.30;92.60;;;;;;5076677;28;20040;-37
2021/11/09 05:09:50;;;;;;;32.47;9.43;;;5.10;92.70;;;;;;5075769;28;20162;-37
2021/11/09 05:12:16;;;;;;;24.90;8.88;;;5.10;92.70;;;;;;5075541;28;20032;-37
2021/11/09 05:14:42;;;;;;;30.42;11.52;;;5.10;92.70;;;;;;5075301;28;20036;-36
2021/11/09 05:17:07;;;;;;;30.15;9.63;;;5.20;92.80;;;;;;5075310;28;20108;-40
2021/11/09 05:19:33;;;;;;;29.67;9.07;;;5.20;92.90;;;;;;5075244;28;20351;-36
2021/11/09 05:21:58;;;;;;;23.58;10.15;;;5.30;92.90;;;;;;5075255;28;20028;-36
2021/11/09 05:24:24;;;;;;;40.00;13.13;;;5.30;92.70;;;;;;5075002;28;20051;-36
2021/11/09 05:26:50;;;;;;;29.58;10.48;;;5.30;92.70;;;;;;5075145;28;20107;-37
2021/11/09 05:29:16;;;;;;;37.67;11.23;;;5.20;92.60;;;;;;5074948;28;20078;-36
2021/11/09 05:31:42;;;;;;;39.45;11.25;;;5.20;92.60;;;;;;5075025;28;20032;-37
2021/11/09 05:34:08;;;;;;;58.92;13.55;;;5.10;92.40;;;;;;5075446;28;20032;-36
2021/11/09 05:36:40;;;;;;;25.73;10.55;;;5.10;92.60;;;;;;5074924;28;20035;-36
2021/11/09 05:41:39;;;;;;;32.03;10.48;;;5.10;92.50;;;;;;5074899;28;20093;-36
2021/11/09 05:44:07;;;;;;;29.95;11.48;;;5.20;92.60;;;;;;5073412;28;20128;-36
2021/11/09 05:46:34;;;;;;;29.73;9.45;;;5.10;92.40;;;;;;5074614;28;20036;-37
2021/11/09 05:48:59;;;;;;;25.55;10.75;;;5.00;92.40;;;;;;5074996;28;20031;-36
2021/11/09 05:51:25;;;;;;;27.00;9.43;;;5.00;92.40;;;;;;5073309;28;20103;-37
2021/11/09 05:53:51;;;;;;;35.00;11.75;;;5.00;92.50;;;;;;5074651;28;20536;-37
2021/11/09 05:56:17;;;;;;;28.63;11.32;;;4.90;92.50;;;;;;5074479;28;20032;-37
2021/11/09 05:58:42;;;;;;;22.65;10.35;;;4.90;92.50;;;;;;5075320;28;20356;-36
2021/11/09 06:01:09;;;;;;;31.45;10.57;;;4.90;92.50;;;;;;5074577;28;20483;-39
2021/11/09 06:03:35;;;;;;;19.58;8.75;;;4.90;92.50;;;;;;5074297;28;20048;-37
2021/11/09 06:06:00;;;;;;;26.90;10.50;;;4.80;92.50;;;;;;5074139;28;20048;-36
2021/11/09 06:08:26;;;;;;;31.77;9.93;;;4.80;92.50;;;;;;5074256;28;20017;-37
2021/11/09 06:10:52;;;;;;;35.90;11.55;;;4.90;92.60;;;;;;5074495;28;20029;-37
2021/11/09 06:13:17;;;;;;;40.03;13.30;;;4.80;92.70;;;;;;5074355;28;20021;-37
2021/11/09 06:15:43;;;;;;;35.97;12.60;;;4.90;92.70;;;;;;5073031;28;20030;-37
2021/11/09 06:18:09;;;;;;;33.83;11.57;;;4.90;92.70;;;;;;5073651;28;20376;-37
2021/11/09 06:20:35;;;;;;;32.47;10.73;;;4.90;92.70;;;;;;5073626;28;20023;-37
2021/11/09 06:23:01;;;;;;;25.70;11.45;;;5.00;92.70;;;;;;5073827;28;20036;-37
2021/11/09 06:25:27;;;;;;;34.08;10.80;;;5.00;92.60;;;;;;5072109;28;20491;-37
2021/11/09 06:27:53;;;;;;;27.60;10.60;;;5.00;92.70;;;;;;5073471;28;20056;-37
2021/11/09 06:30:20;;;;;;;31.60;11.57;;;5.10;92.70;;;;;;5073975;28;20030;-37
2021/11/09 06:32:47;;;;;;;35.90;11.60;;;5.00;92.70;;;;;;5073587;28;20093;-37
2021/11/09 06:35:13;;;;;;;34.70;11.90;;;5.00;92.60;;;;;;5073382;28;20035;-37
2021/11/09 06:37:38;;;;;;;26.50;12.82;;;5.00;92.50;;;;;;5073684;28;20021;-37
2021/11/09 06:40:06;;;;;;;37.17;13.48;;;5.10;92.60;;;;;;5073851;28;20159;-37
2021/11/09 06:42:33;;;;;;;41.22;15.32;;;5.10;92.80;;;;;;5073782;28;20020;-37
2021/11/09 06:44:59;;;;;;;37.28;13.27;;;5.20;92.80;;;;;;5073535;28;20025;-37
2021/11/09 06:47:24;;;;;;;39.50;12.20;;;5.20;92.80;;;;;;5073606;28;20028;-37
2021/11/09 06:49:50;;;;;;;34.47;14.45;;;5.20;92.80;;;;;;5071983;28;20024;-37
2021/11/09 06:52:17;;;;;;;28.35;12.27;;;5.20;92.70;;;;;;5073214;28;20498;-37
2021/11/09 06:54:44;;;;;;;41.03;14.30;;;5.20;92.70;;;;;;5073072;28;20024;-38
2021/11/09 06:57:11;;;;;;;36.22;13.45;;;5.30;92.60;;;;;;5073091;28;20170;-37
2021/11/09 06:59:37;;;;;;;36.67;12.50;;;5.30;92.60;;;;;;5072917;28;20020;-37
2021/11/09 07:02:03;;;;;;;39.65;11.95;;;5.40;92.80;;;;;;5072553;28;20060;-37
2021/11/09 07:04:29;;;;;;;31.23;14.48;;;5.50;92.60;;;;;;5073279;28;20025;-37
2021/11/09 07:06:56;;;;;;;38.38;12.13;;;5.60;92.20;;;;;;5072882;28;20511;-37
2021/11/09 07:09:22;;;;;;;40.50;13.02;;;5.70;91.70;;;;;;5072796;28;20029;-37
2021/11/09 07:11:48;;;;;;;39.70;11.18;;;5.60;91.70;;;;;;5073658;28;20067;-36
2021/11/09 07:14:14;;;;;;;31.95;12.95;;;5.60;91.80;;;;;;5072900;28;20064;-37
2021/11/09 07:16:42;;;;;;;24.88;10.93;;;5.50;91.70;;;;;;5071296;28;20104;-37
2021/11/09 07:19:09;;;;;;;32.47;12.32;;;5.60;91.80;;;;;;5072563;28;20032;-36
2021/11/09 07:21:35;;;;;;;34.47;11.38;;;5.60;91.80;;;;;;5072973;28;20024;-37
2021/11/09 07:24:01;;;;;;;37.40;12.48;;;5.70;91.80;;;;;;5072339;28;20039;-38
2021/11/09 07:26:28;;;;;;;35.28;12.13;;;5.80;91.60;;;;;;5072601;28;20029;-37
2021/11/09 07:28:55;;;;;;;44.58;13.27;;;5.80;91.00;;;;;;5072595;28;20111;-37
2021/11/09 07:31:21;;;;;;;32.10;10.27;;;5.80;91.00;;;;;;5072914;28;20421;-37
2021/11/09 07:33:49;;;;;;;28.45;11.32;;;5.80;91.20;;;;;;5071280;28;20110;-38
2021/11/09 07:36:15;;;;;;;27.08;9.80;;;5.90;91.10;;;;;;5072892;28;20028;-40
2021/11/09 07:38:41;;;;;;;32.95;11.07;;;6.10;91.00;;;;;;5073298;28;20380;-39
2021/11/09 07:41:07;;;;;;;30.58;12.57;;;6.20;90.60;;;;;;5072527;28;20024;-37
2021/11/09 07:43:32;;;;;;;31.73;12.77;;;6.20;90.30;;;;;;5073025;28;20021;-37
2021/11/09 07:45:59;;;;;;;39.38;14.45;;;6.30;90.40;;;;;;5072992;28;20440;-37
2021/11/09 07:48:26;;;;;;;33.33;11.77;;;6.30;90.00;;;;;;5072638;28;20031;-40
2021/11/09 07:50:52;;;;;;;39.80;12.68;;;6.30;89.80;;;;;;5072465;28;20104;-37
2021/11/09 07:53:19;;;;;;;40.80;14.10;;;6.30;89.70;;;;;;5072603;28;20464;-37
2021/11/09 07:56:21;;;;;;;40.67;12.93;;;6.30;89.60;;;;;;5072511;28;20032;-39
2021/11/09 08:01:08;;;;;;;34.95;12.15;;;6.60;89.30;;;;;;5072632;28;20155;-37
2021/11/09 08:06:20;;;;;;;20.90;11.10;;;6.80;88.10;;;;;;5071936;28;20075;-37
2021/11/09 08:11:30;;;;;;;34.70;10.85;;;7.50;87.10;;;;;;5072611;28;20027;-38
2021/11/09 08:13:56;;;;;;;25.40;8.13;;;7.80;85.50;;;;;;5072310;28;20021;-36
2021/11/09 08:16:21;;;;;;;25.05;9.23;;;7.90;84.30;;;;;;5072010;28;20045;-37
2021/11/09 08:18:47;;;;;;;20.35;7.78;;;7.90;84.40;;;;;;5072060;28;20432;-38
2021/11/09 08:21:14;;;;;;;28.88;8.75;;;8.70;82.10;;;;;;5072455;28;20025;-38
2021/11/09 08:23:40;;;;;;;20.90;7.93;;;9.50;79.40;;;;;;5072326;28;20436;-38
2021/11/09 08:26:05;;;;;;;29.33;11.45;;;10.10;77.60;;;;;;5072313;28;20021;-38
2021/11/09 08:28:33;;;;;;;22.80;7.78;;;10.70;75.30;;;;;;5072011;28;20365;-41
2021/11/09 08:31:07;;;;;;;29.02;8.75;;;10.90;72.90;;;;;;5071880;28;20035;-38
2021/11/09 08:33:33;;;;;;;26.23;9.73;;;9.90;76.50;;;;;;5071828;28;20035;-38
2021/11/09 08:36:03;;;;;;;25.38;8.88;;;10.40;75.40;;;;;;5071373;28;20468;-38
2021/11/09 08:38:29;;;;;;;28.90;10.80;;;10.90;72.30;;;;;;5071717;28;20171;-38
2021/11/09 08:40:55;;;;;;;24.70;9.70;;;11.40;71.60;;;;;;5071579;28;20366;-38
2021/11/09 08:43:25;;;;;;;22.20;8.32;;;11.90;69.20;;;;;;5074505;28;20017;-38
2021/11/09 08:46:07;;;;;;;31.17;8.68;;;11.70;71.60;;;;;;5075668;28;20036;-38
2021/11/09 08:48:43;;;;;;;28.38;8.13;;;12.40;68.20;;;;;;5075355;28;20461;-37
2021/11/09 08:51:11;;;;;;;22.80;8.93;;;12.40;67.30;;;;;;5075556;28;20028;-37
2021/11/09 08:53:45;;;;;;;28.45;9.43;;;11.70;70.50;;;;;;5074825;28;20021;-37
2021/11/09 09:06:37;;;;;;;22.63;7.90;;;12.80;64.80;;;;;;5074733;28;20055;-37
2021/11/09 09:09:04;;;;;;;21.92;8.15;;;11.70;68.40;;;;;;5074693;28;20107;-37
2021/11/09 09:11:31;;;;;;;27.77;8.30;;;12.30;67.60;;;;;;5074743;28;20094;-36
2021/11/09 09:13:57;;;;;;;21.45;9.52;;;12.50;66.40;;;;;;5073660;28;20388;-37
2021/11/09 09:16:24;;;;;;;28.73;8.07;;;13.50;63.80;;;;;;5075034;28;20457;-37
2021/11/09 09:18:50;;;;;;;24.92;8.45;;;13.70;61.20;;;;;;5075559;28;20048;-37
2021/11/09 09:21:28;;;;;;;21.08;9.30;;;12.20;66.00;;;;;;5075120;28;20028;-37
2021/11/09 09:23:58;;;;;;;14.38;7.35;;;12.80;66.00;;;;;;5074723;28;20565;-37
2021/11/09 09:31:47;;;;;;;18.60;7.60;;;12.90;64.00;;;;;;5075143;28;20017;-39
2021/11/09 09:56:13;;;;;;;16.85;6.97;;;10.90;69.90;;;;;;5074105;28;20039;-38
2021/11/09 09:58:39;;;;;;;14.27;5.63;;;10.80;70.40;;;;;;5074198;28;20492;-40
2021/11/09 10:01:05;;;;;;;19.70;6.88;;;10.80;70.40;;;;;;5073806;28;20029;-38
2021/11/09 10:03:36;;;;;;;19.63;8.23;;;10.80;69.60;;;;;;5072289;28;20426;-38
2021/11/09 10:06:03;;;;;;;15.23;5.70;;;11.00;68.10;;;;;;5073609;28;20040;-40
2021/11/09 10:08:49;;;;;;;16.52;4.30;;;11.00;68.10;;;;;;5073266;28;20126;-38
2021/11/09 10:11:47;;;;;;;10.60;4.88;;;10.90;66.40;;;;;;5074266;28;20112;-37
2021/11/09 10:14:33;;;;;;;13.20;4.68;;;10.90;67.30;;;;;;5051162;28;20120;-37
2021/11/09 10:17:13;;;;;;;10.55;4.25;;;11.00;66.40;;;;;;5073137;28;20025;-37
2021/11/09 10:19:41;;;;;;;11.85;4.00;;;11.10;65.70;;;;;;5073810;28;20048;-38
2021/11/09 10:22:23;;;;;;;9.40;4.13;;;11.30;63.90;;;;;;5073333;28;20126;-38
2021/11/09 10:24:51;;;;;;;15.40;4.93;;;11.30;63.10;;;;;;5073279;28;20051;-38
2021/11/09 10:27:18;;;;;;;11.05;5.03;;;11.40;62.10;;;;;;5075081;28;20027;-38
2021/11/09 10:29:45;;;;;;;13.93;4.38;;;11.50;62.40;;;;;;5073077;28;20059;-38
2021/11/09 10:32:13;;;;;;;11.07;5.47;;;11.40;62.50;;;;;;5071507;28;20090;-37
2021/11/09 10:34:38;;;;;;;14.55;4.28;;;11.40;62.50;;;;;;5072923;28;20461;-39
2021/11/09 10:37:20;;;;;;;18.10;5.22;;;11.40;61.10;;;;;;5073120;28;20024;-38
2021/11/09 10:39:47;;;;;;;10.93;4.20;;;11.50;61.40;;;;;;5072656;28;20075;-37
2021/11/09 10:42:15;;;;;;;10.73;4.07;;;11.40;61.50;;;;;;5072708;28;20024;-37
2021/11/09 10:44:42;;;;;;;16.88;4.20;;;11.50;61.60;;;;;;5073008;28;20028;-37
2021/11/09 10:47:35;;;;;;;14.43;4.38;;;11.60;62.10;;;;;;5072847;28;20057;-37
2021/11/09 10:50:05;;;;;;;19.38;5.60;;;11.60;61.90;;;;;;5070960;28;20032;-38
2021/11/09 10:52:38;;;;;;;13.35;4.18;;;11.60;61.90;;;;;;5071786;28;20074;-37
2021/11/09 11:03:50;;;;;;;12.07;4.82;;;11.80;60.60;;;;;;5072794;28;20031;-38
2021/11/09 11:06:17;;;;;;;12.50;4.57;;;11.70;61.50;;;;;;5072097;28;20356;-38
2021/11/09 11:08:44;;;;;;;8.07;3.53;;;11.70;62.10;;;;;;5073184;28;20035;-37
2021/11/09 11:11:28;;;;;;;19.25;5.13;;;11.80;61.60;;;;;;5072546;28;20074;-36
2021/11/09 11:14:06;;;;;;;10.13;3.85;;;12.00;61.00;;;;;;5072621;28;20016;-36
2021/11/09 11:16:45;;;;;;;10.90;4.13;;;12.10;60.20;;;;;;5073440;28;20088;-37
2021/11/09 11:19:13;;;;;;;11.10;3.53;;;12.20;59.90;;;;;;5071524;28;20461;-37
2021/11/09 11:21:40;;;;;;;8.35;4.05;;;12.30;59.80;;;;;;5072355;28;20024;-37
2021/11/09 11:24:09;;;;;;;12.00;4.72;;;12.20;58.90;;;;;;5072405;28;20025;-37
2021/11/09 11:26:36;;;;;;;13.02;3.80;;;12.20;59.20;;;;;;5072596;28;20122;-37
2021/11/09 11:29:03;;;;;;;11.23;2.67;;;12.30;58.00;;;;;;5072422;28;20012;-38
2021/11/09 11:31:29;;;;;;;11.48;3.50;;;12.40;58.00;;;;;;5072365;28;20036;-37
2021/11/09 11:33:55;;;;;;;9.48;4.03;;;12.30;57.30;;;;;;5072212;28;20021;-38
2021/11/09 11:36:20;;;;;;;6.85;2.65;;;12.30;57.00;;;;;;5072523;28;20056;-37
2021/11/09 11:38:49;;;;;;;10.55;4.63;;;12.30;56.20;;;;;;5072715;28;20025;-38
2021/11/09 11:41:16;;;;;;;11.80;3.85;;;12.30;56.40;;;;;;5070573;28;20032;-37
2021/11/09 11:43:47;;;;;;;11.00;3.30;;;12.30;55.80;;;;;;5072562;28;20108;-37
2021/11/09 11:46:33;;;;;;;11.45;3.42;;;12.40;55.90;;;;;;5072215;28;20021;-39
2021/11/09 11:49:00;;;;;;;9.45;2.78;;;12.30;56.30;;;;;;5073526;28;20115;-41
2021/11/09 11:51:27;;;;;;;10.88;3.80;;;12.40;54.20;;;;;;5072397;28;20109;-37
2021/11/09 11:53:54;;;;;;;8.85;3.50;;;12.40;54.50;;;;;;5072495;28;20033;-38
2021/11/09 11:56:39;;;;;;;7.90;2.70;;;12.50;54.60;;;;;;5072534;28;20020;-38
2021/11/09 11:59:25;;;;;;;9.07;2.90;;;12.50;54.10;;;;;;5072177;28;20051;-38
2021/11/09 12:02:03;;;;;;;5.13;2.00;;;12.20;54.70;;;;;;5072012;28;20556;-37
2021/11/09 12:04:41;;;;;;;8.13;2.70;;;12.30;54.30;;;;;;5070679;28;20063;-37
2021/11/09 12:07:11;;;;;;;7.05;2.40;;;12.20;54.80;;;;;;5071675;28;20041;-38
2021/11/09 12:09:40;;;;;;;7.20;2.30;;;12.30;53.90;;;;;;5072054;28;20379;-38
2021/11/09 12:12:18;;;;;;;13.25;2.78;;;12.30;53.90;;;;;;5072036;28;20455;-38
2021/11/09 12:15:00;;;;;;;4.05;2.13;;;12.30;54.30;;;;;;5071989;28;20078;-37
2021/11/09 12:17:44;;;;;;;16.05;5.07;;;12.30;53.70;;;;;;5073553;28;20021;-37
2021/11/09 12:20:12;;;;;;;8.25;2.83;;;12.50;53.30;;;;;;5075368;28;20503;-37
2021/11/09 12:22:53;;;;;;;13.77;4.03;;;12.40;53.30;;;;;;5074906;28;20047;-37
2021/11/09 12:25:22;;;;;;;9.73;2.33;;;12.30;53.00;;;;;;5075680;28;20055;-37
2021/11/09 12:27:54;;;;;;;7.40;2.55;;;12.30;53.40;;;;;;5076165;28;20028;-39
2021/11/09 12:30:42;;;;;;;6.97;2.80;;;12.30;54.10;;;;;;5075517;28;20059;-37
2021/11/09 12:33:14;;;;;;;8.98;2.33;;;12.30;53.90;;;;;;5076205;28;20464;-37
2021/11/09 12:35:49;;;;;;;6.95;3.05;;;12.40;53.60;;;;;;5076413;28;20310;-38
2021/11/09 12:38:30;;;;;;;4.90;2.22;;;12.50;53.50;;;;;;5075243;28;20016;-38
2021/11/09 12:40:58;;;;;;;7.38;3.03;;;12.40;54.10;;;;;;5075272;28;20473;-40
2021/11/09 12:43:30;;;;;;;10.23;3.10;;;12.40;54.20;;;;;;5075424;28;20025;-37
2021/11/09 12:46:09;;;;;;;8.77;2.40;;;12.50;54.60;;;;;;5075438;28;20056;-37
2021/11/09 12:48:49;;;;;;;8.98;2.70;;;12.50;54.30;;;;;;5075295;28;20107;-38
2021/11/09 12:51:17;;;;;;;5.88;2.53;;;12.50;54.00;;;;;;5075753;28;20024;-38
2021/11/09 12:53:44;;;;;;;8.25;2.80;;;12.60;53.60;;;;;;5075845;28;20512;-38
2021/11/09 12:56:12;;;;;;;7.10;2.70;;;12.60;53.30;;;;;;5075157;28;20093;-38
2021/11/09 12:58:49;;;;;;;5.65;2.33;;;12.60;53.90;;;;;;5075603;28;20400;-38
2021/11/09 13:06:51;;;;;;;5.60;2.45;;;12.50;54.30;;;;;;5074695;28;20083;-37
2021/11/09 13:09:27;;;;;;;9.38;2.42;;;12.50;53.80;;;;;;5075190;28;20024;-38
2021/11/09 13:12:12;;;;;;;10.32;2.50;;;12.60;53.60;;;;;;5074964;28;20034;-37
2021/11/09 13:14:44;;;;;;;8.68;2.47;;;12.70;53.20;;;;;;5074835;28;20037;-37
2021/11/09 13:17:25;;;;;;;6.25;2.10;;;12.70;53.70;;;;;;5075138;28;20077;-39
2021/11/09 13:20:34;;;;;;;9.13;3.10;;;12.50;54.00;;;;;;5075264;28;20031;-37
2021/11/09 13:23:12;;;;;;;9.68;2.85;;;12.50;54.00;;;;;;5074687;28;20036;-36
2021/11/09 13:25:50;;;;;;;7.88;1.83;;;12.50;54.40;;;;;;5074348;28;20029;-37
2021/11/09 13:28:20;;;;;;;8.70;2.22;;;12.50;54.50;;;;;;5073488;28;20025;-37
2021/11/09 13:30:56;;;;;;;3.08;1.95;;;12.50;54.00;;;;;;5074981;28;20021;-37
2021/11/09 13:33:24;;;;;;;7.20;3.35;;;12.40;54.60;;;;;;5074595;28;20036;-37
2021/11/09 13:35:52;;;;;;;4.55;2.13;;;12.50;54.40;;;;;;5074354;28;20544;-37
2021/11/09 13:38:33;;;;;;;9.70;2.85;;;12.50;53.60;;;;;;5073010;28;20024;-37
2021/11/09 13:41:05;;;;;;;7.05;1.95;;;12.40;53.10;;;;;;5073097;28;20021;-38
2021/11/09 13:43:38;;;;;;;5.65;2.45;;;12.50;53.30;;;;;;5074113;28;20051;-38
2021/11/09 13:46:11;;;;;;;8.75;2.28;;;12.40;53.50;;;;;;5072842;28;20733;-37
2021/11/09 13:48:39;;;;;;;9.45;2.10;;;12.40;54.00;;;;;;5073788;28;20434;-38
2021/11/09 13:51:12;;;;;;;5.20;2.10;;;12.30;52.90;;;;;;5072708;28;20017;-38
2021/11/09 13:53:45;;;;;;;5.53;2.35;;;12.40;53.20;;;;;;5073957;28;20060;-37
2021/11/09 13:56:23;;;;;;;5.32;2.47;;;12.40;53.10;;;;;;5073945;28;20107;-37
2021/11/09 13:58:57;;;;;;;6.25;3.20;;;12.40;53.30;;;;;;5074142;28;20028;-37
2021/11/09 14:01:50;;;;;;;5.82;1.67;;;12.40;53.20;;;;;;5074434;28;20162;-37
2021/11/09 14:17:39;;;;;;;9.77;2.53;;;12.40;54.00;;;;;;5073851;28;20017;-37
2021/11/09 14:20:14;;;;;;;8.68;2.58;;;12.50;53.80;;;;;;5074078;28;20468;-37
2021/11/09 14:22:41;;;;;;;7.97;2.40;;;12.30;54.30;;;;;;5073538;28;20080;-37
2021/11/09 14:25:12;;;;;;;10.00;2.70;;;12.30;54.80;;;;;;5073860;28;20047;-37
2021/11/09 14:27:46;;;;;;;5.40;2.22;;;12.20;55.20;;;;;;5074096;28;20035;-37
2021/11/09 14:30:19;;;;;;;8.18;2.13;;;12.20;55.40;;;;;;5073573;28;20383;-37
2021/11/09 14:32:45;;;;;;;7.32;2.30;;;12.20;55.70;;;;;;5073020;28;20024;-38
2021/11/09 14:35:26;;;;;;;9.15;2.95;;;12.20;55.70;;;;;;5072973;28;20120;-37
2021/11/09 14:38:09;;;;;;;11.68;2.38;;;12.10;56.20;;;;;;5073790;28;20028;-38
2021/11/09 14:40:44;;;;;;;8.18;2.53;;;12.20;56.30;;;;;;5072946;28;20460;-38
2021/11/09 14:43:20;;;;;;;5.10;1.88;;;12.10;56.60;;;;;;5072197;28;20055;-38
2021/11/09 14:46:05;;;;;;;9.85;3.63;;;12.10;56.20;;;;;;5073188;28;20391;-38
2021/11/09 14:51:26;;;;;;;9.40;2.58;;;11.90;56.40;;;;;;5073424;28;20028;-38
2021/11/09 14:56:27;;;;;;;6.50;3.35;;;12.10;56.50;;;;;;5072114;28;20392;-39
2021/11/09 14:58:59;;;;;;;8.90;3.17;;;12.00;57.10;;;;;;5073030;28;20032;-39
2021/11/09 15:01:40;;;;;;;10.23;3.08;;;11.80;58.00;;;;;;5071467;28;20021;-40
2021/11/09 15:04:18;;;;;;;9.80;2.67;;;11.80;58.00;;;;;;5073273;28;20024;-39
2021/11/09 15:07:05;;;;;;;8.35;3.88;;;11.70;58.30;;;;;;5072611;28;20519;-39
2021/11/09 15:28:16;;;;;;;10.07;3.00;;;11.40;59.80;;;;;;5072713;28;20167;-38
2021/11/09 15:33:35;;;;;;;11.40;3.08;;;11.20;60.50;;;;;;5072132;28;20362;-37
2021/11/09 15:38:45;;;;;;;10.30;3.88;;;11.00;61.30;;;;;;5072407;28;20024;-38
2021/11/09 15:41:11;;;;;;;8.57;2.45;;;11.00;61.30;;;;;;5072175;28;20104;-39
2021/11/09 15:43:39;;;;;;;7.25;2.10;;;10.90;61.60;;;;;;5070906;28;20055;-37
2021/11/09 15:46:06;;;;;;;5.93;2.65;;;10.80;61.90;;;;;;5072629;28;20021;-39
2021/11/09 15:48:32;;;;;;;6.47;2.58;;;10.80;61.90;;;;;;5072035;28;20042;-37
2021/11/09 15:50:58;;;;;;;11.32;3.80;;;10.80;62.40;;;;;;5071778;28;20025;-37
2021/11/09 15:53:24;;;;;;;7.28;2.78;;;10.60;62.90;;;;;;5071528;28;20028;-38
2021/11/09 15:55:50;;;;;;;12.32;3.35;;;10.50;63.20;;;;;;5072094;28;20078;-42